Search for airport 
image banner adimage banner adimage banner ad
image banner ad

CEN7 - Deline

Located in , Canada

ICAO - CEN7, IATA -

Data provided by Airmate  

General information

Coordinates: N65°11'0" W123°25'0"
Elevation is 512 feet MSL.
Magnetic variation is 22.5208° East
View others Airports in Northwest Territories

Operational data

Special qualification required
Current time UTC:
Current local time:
Weather at : CYWJ - Deline ( 3 km )
METAR: CYWJ 221400Z 10011KT 10SM SCT070 02/00 A2951 RMK AC3 SLP007
TAF: TAF CYWJ 221413Z 2214/2223 10010KT P6SM FEW004 BKN220 FM221800 12015G30KT P6SM FEW140 BKN200 RMK NXT FCST BY 221800Z
View NOTAMs / SUP AIP / TFR affecting this airport [VIEW]
Communications frequencies: [VIEW]

Runways:

RWY identifierQFULength (ft)Width (ft)SurfaceLDA (ft)
W00WATER

Airport contact information

Address: Canada

Satellite view of CEN7